Аэропорт: Элиста. Элиста

ICAO: URWI

METAR:
2021-10-23 01:30:00
URWI 230130Z AUTO 27004MPS 9999 // ///////// 10/04 Q1019
METAR:
Информация по данной станции не доступна